Time;durP1;ratioP1;P1;durP2;ratioP2;P2;SDS_P1;SDS_P2;PMS_P1;PMS_P2;Temp;Humidity;BMP_temperature;BMP_pressure;BME280_temperature;BME280_humidity;BME280_pressure;Samples;Min_cycle;Max_cycle;Signal;HPM_P1;HPM_P2
2020/06/29 00:00:23;;;;;;;8.450001;7.4;;;;;;;17.42;99.2168;95151.14;;;;
2020/06/29 00:01:23;;;;;;;8.450001;7.4;;;;;;;17.42;99.2168;95151.14;;;;
2020/06/29 00:02:24;;;;;;;8.450001;7.4;;;;;;;17.42;99.2168;95151.14;;;;
2020/06/29 00:03:25;;;;;;;8.450001;7.4;;;;;;;17.42;99.2168;95151.14;;;;
2020/06/29 00:04:26;;;;;;;8.450001;7.4;;;;;;;17.42;99.2168;95151.14;;;;
2020/06/29 00:05:26;;;;;;;8.450001;7.4;;;;;;;17.42;99.2168;95151.14;;;;
2020/06/29 00:06:27;;;;;;;8.450001;7.4;;;;;;;17.42;99.2168;95151.14;;;;
2020/06/29 00:07:27;;;;;;;8.450001;7.4;;;;;;;17.42;99.2168;95151.14;;;;
2020/06/29 00:08:28;;;;;;;8.450001;7.4;;;;;;;17.42;99.2168;95151.14;;;;
2020/06/29 00:09:28;;;;;;;8.450001;7.4;;;;;;;17.42;99.2168;95151.14;;;;
2020/06/29 00:10:29;;;;;;;8.450001;7.4;;;;;;;17.42;99.2168;95151.14;;;;
2020/06/29 00:11:29;;;;;;;8.899999;8.000001;;;;;;;17.23;100;95153.68;;;;
2020/06/29 00:12:30;;;;;;;8.899999;8.000001;;;;;;;17.23;100;95153.68;;;;
2020/06/29 00:13:30;;;;;;;8.899999;8.000001;;;;;;;17.23;100;95153.68;;;;
2020/06/29 00:14:31;;;;;;;8.899999;8.000001;;;;;;;17.23;100;95153.68;;;;
2020/06/29 00:15:31;;;;;;;8.899999;8.000001;;;;;;;17.23;100;95153.68;;;;
2020/06/29 00:16:32;;;;;;;8.899999;8.000001;;;;;;;17.23;100;95153.68;;;;
2020/06/29 00:17:32;;;;;;;8.899999;8.000001;;;;;;;17.23;100;95153.68;;;;
2020/06/29 00:18:33;;;;;;;8.899999;8.000001;;;;;;;17.23;100;95153.68;;;;
2020/06/29 00:19:33;;;;;;;8.899999;8.000001;;;;;;;17.23;100;95153.68;;;;
2020/06/29 00:20:34;;;;;;;8.899999;8.000001;;;;;;;17.23;100;95153.68;;;;
2020/06/29 00:21:34;;;;;;;8.200001;7.400001;;;;;;;17.12;100;95164.4;;;;
2020/06/29 00:22:35;;;;;;;8.200001;7.400001;;;;;;;17.12;100;95164.4;;;;
2020/06/29 00:23:35;;;;;;;8.200001;7.400001;;;;;;;17.12;100;95164.4;;;;
2020/06/29 00:24:36;;;;;;;8.200001;7.400001;;;;;;;17.12;100;95164.4;;;;
2020/06/29 00:25:36;;;;;;;8.200001;7.400001;;;;;;;17.12;100;95164.4;;;;
2020/06/29 00:26:37;;;;;;;8.200001;7.400001;;;;;;;17.12;100;95164.4;;;;
2020/06/29 00:27:37;;;;;;;8.200001;7.400001;;;;;;;17.12;100;95164.4;;;;
2020/06/29 00:28:38;;;;;;;8.200001;7.400001;;;;;;;17.12;100;95164.4;;;;
2020/06/29 00:29:38;;;;;;;8.200001;7.400001;;;;;;;17.12;100;95164.4;;;;
2020/06/29 00:30:39;;;;;;;8.200001;7.400001;;;;;;;17.12;100;95164.4;;;;
2020/06/29 00:31:39;;;;;;;8.200001;7.400001;;;;;;;17.12;100;95164.4;;;;
2020/06/29 00:32:39;;;;;;;8.799999;7.5;;;;;;;17.01;100;95152.01;;;;
2020/06/29 00:33:40;;;;;;;8.799999;7.5;;;;;;;17.01;100;95152.01;;;;
2020/06/29 00:34:40;;;;;;;8.799999;7.5;;;;;;;17.01;100;95152.01;;;;
2020/06/29 00:35:41;;;;;;;8.799999;7.5;;;;;;;17.01;100;95152.01;;;;
2020/06/29 00:36:41;;;;;;;8.799999;7.5;;;;;;;17.01;100;95152.01;;;;
2020/06/29 00:37:42;;;;;;;8.799999;7.5;;;;;;;17.01;100;95152.01;;;;
2020/06/29 00:38:42;;;;;;;8.799999;7.5;;;;;;;17.01;100;95152.01;;;;
2020/06/29 00:39:43;;;;;;;8.799999;7.5;;;;;;;17.01;100;95152.01;;;;
2020/06/29 00:40:43;;;;;;;8.799999;7.5;;;;;;;17.01;100;95152.01;;;;
2020/06/29 00:41:46;;;;;;;8.799999;7.5;;;;;;;17.01;100;95152.01;;;;
2020/06/29 00:42:47;;;;;;;7.95;7.2;;;;;;;16.95;100;95164.86;;;;
2020/06/29 00:43:48;;;;;;;7.95;7.2;;;;;;;16.95;100;95164.86;;;;
2020/06/29 00:44:48;;;;;;;7.95;7.2;;;;;;;16.95;100;95164.86;;;;
2020/06/29 00:45:49;;;;;;;7.95;7.2;;;;;;;16.95;100;95164.86;;;;
2020/06/29 00:46:49;;;;;;;7.95;7.2;;;;;;;16.95;100;95164.86;;;;
2020/06/29 00:47:50;;;;;;;7.95;7.2;;;;;;;16.95;100;95164.86;;;;
2020/06/29 00:48:50;;;;;;;7.95;7.2;;;;;;;16.95;100;95164.86;;;;
2020/06/29 00:49:51;;;;;;;7.95;7.2;;;;;;;16.95;100;95164.86;;;;
2020/06/29 00:50:51;;;;;;;7.95;7.2;;;;;;;16.95;100;95164.86;;;;
2020/06/29 00:51:51;;;;;;;7.95;7.2;;;;;;;16.95;100;95164.86;;;;
2020/06/29 00:52:52;;;;;;;7.95;7.2;;;;;;;16.95;100;95164.86;;;;
2020/06/29 00:53:53;;;;;;;9.400001;7.55;;;;;;;16.81;100;95177.87;;;;
2020/06/29 00:54:53;;;;;;;9.400001;7.55;;;;;;;16.81;100;95177.87;;;;
2020/06/29 00:55:54;;;;;;;9.400001;7.55;;;;;;;16.81;100;95177.87;;;;
2020/06/29 00:56:54;;;;;;;9.400001;7.55;;;;;;;16.81;100;95177.87;;;;
2020/06/29 00:57:55;;;;;;;9.400001;7.55;;;;;;;16.81;100;95177.87;;;;
2020/06/29 00:58:55;;;;;;;9.400001;7.55;;;;;;;16.81;100;95177.87;;;;
2020/06/29 00:59:56;;;;;;;9.400001;7.55;;;;;;;16.81;100;95177.87;;;;
2020/06/29 01:00:56;;;;;;;9.400001;7.55;;;;;;;16.81;100;95177.87;;;;
2020/06/29 01:01:57;;;;;;;9.400001;7.55;;;;;;;16.81;100;95177.87;;;;
2020/06/29 01:02:57;;;;;;;9.400001;7.55;;;;;;;16.81;100;95177.87;;;;
2020/06/29 01:03:58;;;;;;;10;8.9;;;;;;;16.74;100;95173.25;;;;
2020/06/29 01:04:58;;;;;;;10;8.9;;;;;;;16.74;100;95173.25;;;;
2020/06/29 01:05:59;;;;;;;10;8.9;;;;;;;16.74;100;95173.25;;;;
2020/06/29 01:06:59;;;;;;;10;8.9;;;;;;;16.74;100;95173.25;;;;
2020/06/29 01:08:00;;;;;;;10;8.9;;;;;;;16.74;100;95173.25;;;;
2020/06/29 01:09:00;;;;;;;10;8.9;;;;;;;16.74;100;95173.25;;;;
2020/06/29 01:10:01;;;;;;;10;8.9;;;;;;;16.74;100;95173.25;;;;
2020/06/29 01:11:03;;;;;;;10;8.9;;;;;;;16.74;100;95173.25;;;;
2020/06/29 01:12:04;;;;;;;10;8.9;;;;;;;16.74;100;95173.25;;;;
2020/06/29 01:13:04;;;;;;;10;8.9;;;;;;;16.74;100;95173.25;;;;
2020/06/29 01:14:05;;;;;;;10;8.9;;;;;;;16.74;100;95173.25;;;;
2020/06/29 01:15:06;;;;;;;10;8.9;;;;;;;16.74;100;95173.25;;;;
2020/06/29 01:16:06;;;;;;;10;8.9;;;;;;;16.74;100;95173.25;;;;
2020/06/29 01:17:07;;;;;;;10;8.9;;;;;;;16.74;100;95173.25;;;;
2020/06/29 01:18:07;;;;;;;10;8.9;;;;;;;16.74;100;95173.25;;;;
2020/06/29 01:19:08;;;;;;;10;8.9;;;;;;;16.74;100;95173.25;;;;
2020/06/29 01:20:08;;;;;;;10;8.9;;;;;;;16.74;100;95173.25;;;;
2020/06/29 01:21:09;;;;;;;10;8.9;;;;;;;16.74;100;95173.25;;;;
2020/06/29 01:22:09;;;;;;;10;8.9;;;;;;;16.74;100;95173.25;;;;
2020/06/29 01:23:16;;;;;;;10;8.9;;;;;;;16.74;100;95173.25;;;;
2020/06/29 01:24:30;;;;;;;10;8.9;;;;;;;16.74;100;95173.25;;;;
2020/06/29 01:25:32;;;;;;;10.05;7.9;;;;;;;16.65;100;95152.15;;;;
2020/06/29 01:26:33;;;;;;;10.05;7.9;;;;;;;16.65;100;95152.15;;;;
2020/06/29 01:27:34;;;;;;;10.05;7.9;;;;;;;16.65;100;95152.15;;;;
2020/06/29 01:28:35;;;;;;;10.05;7.9;;;;;;;16.65;100;95152.15;;;;
2020/06/29 01:29:35;;;;;;;10.05;7.9;;;;;;;16.65;100;95152.15;;;;
2020/06/29 01:30:36;;;;;;;10.05;7.9;;;;;;;16.65;100;95152.15;;;;
2020/06/29 01:31:36;;;;;;;10.05;7.9;;;;;;;16.65;100;95152.15;;;;
2020/06/29 01:32:37;;;;;;;10.05;7.9;;;;;;;16.65;100;95152.15;;;;
2020/06/29 01:33:37;;;;;;;10.05;7.9;;;;;;;16.65;100;95152.15;;;;
2020/06/29 01:34:38;;;;;;;10.05;7.9;;;;;;;16.65;100;95152.15;;;;
2020/06/29 01:35:38;;;;;;;10.05;7.9;;;;;;;16.65;100;95152.15;;;;
2020/06/29 01:36:38;;;;;;;9.1;7.700001;;;;;;;16.49;100;95138.4;;;;
2020/06/29 01:37:39;;;;;;;9.1;7.700001;;;;;;;16.49;100;95138.4;;;;
2020/06/29 01:38:39;;;;;;;9.1;7.700001;;;;;;;16.49;100;95138.4;;;;
2020/06/29 01:39:40;;;;;;;9.1;7.700001;;;;;;;16.49;100;95138.4;;;;
2020/06/29 01:40:40;;;;;;;9.1;7.700001;;;;;;;16.49;100;95138.4;;;;
2020/06/29 01:41:41;;;;;;;9.1;7.700001;;;;;;;16.49;100;95138.4;;;;
2020/06/29 01:42:41;;;;;;;9.1;7.700001;;;;;;;16.49;100;95138.4;;;;
2020/06/29 01:43:42;;;;;;;9.1;7.700001;;;;;;;16.49;100;95138.4;;;;
2020/06/29 01:44:43;;;;;;;9.1;7.700001;;;;;;;16.49;100;95138.4;;;;
2020/06/29 01:45:43;;;;;;;9.1;7.700001;;;;;;;16.49;100;95138.4;;;;
2020/06/29 01:46:44;;;;;;;9.1;8.099999;;;;;;;16.44;100;95134.31;;;;
2020/06/29 01:47:44;;;;;;;9.1;8.099999;;;;;;;16.44;100;95134.31;;;;
2020/06/29 01:48:45;;;;;;;9.1;8.099999;;;;;;;16.44;100;95134.31;;;;
2020/06/29 01:49:45;;;;;;;9.1;8.099999;;;;;;;16.44;100;95134.31;;;;
2020/06/29 01:50:46;;;;;;;9.1;8.099999;;;;;;;16.44;100;95134.31;;;;
2020/06/29 01:51:46;;;;;;;9.1;8.099999;;;;;;;16.44;100;95134.31;;;;
2020/06/29 01:52:47;;;;;;;9.1;8.099999;;;;;;;16.44;100;95134.31;;;;
2020/06/29 01:53:47;;;;;;;9.1;8.099999;;;;;;;16.44;100;95134.31;;;;
2020/06/29 01:54:48;;;;;;;9.1;8.099999;;;;;;;16.44;100;95134.31;;;;
2020/06/29 01:55:48;;;;;;;9.1;8.099999;;;;;;;16.44;100;95134.31;;;;
2020/06/29 01:56:49;;;;;;;9.1;8.099999;;;;;;;16.44;100;95134.31;;;;
2020/06/29 01:57:49;;;;;;;9.349999;8.450001;;;;;;;16.35;100;95125.89;;;;
2020/06/29 01:58:50;;;;;;;9.349999;8.450001;;;;;;;16.35;100;95125.89;;;;
2020/06/29 01:59:50;;;;;;;9.349999;8.450001;;;;;;;16.35;100;95125.89;;;;
2020/06/29 02:00:50;;;;;;;9.349999;8.450001;;;;;;;16.35;100;95125.89;;;;
2020/06/29 02:01:51;;;;;;;9.349999;8.450001;;;;;;;16.35;100;95125.89;;;;
2020/06/29 02:02:51;;;;;;;9.349999;8.450001;;;;;;;16.35;100;95125.89;;;;
2020/06/29 02:03:52;;;;;;;9.349999;8.450001;;;;;;;16.35;100;95125.89;;;;
2020/06/29 02:04:52;;;;;;;9.349999;8.450001;;;;;;;16.35;100;95125.89;;;;
2020/06/29 02:05:53;;;;;;;9.349999;8.450001;;;;;;;16.35;100;95125.89;;;;
2020/06/29 02:06:53;;;;;;;9.349999;8.450001;;;;;;;16.35;100;95125.89;;;;
2020/06/29 02:07:54;;;;;;;8.850001;8.050001;;;;;;;16.36;100;95128.45;;;;
2020/06/29 02:08:54;;;;;;;8.850001;8.050001;;;;;;;16.36;100;95128.45;;;;
2020/06/29 02:09:55;;;;;;;8.850001;8.050001;;;;;;;16.36;100;95128.45;;;;
2020/06/29 02:10:55;;;;;;;8.850001;8.050001;;;;;;;16.36;100;95128.45;;;;
2020/06/29 02:11:55;;;;;;;8.850001;8.050001;;;;;;;16.36;100;95128.45;;;;
2020/06/29 02:12:56;;;;;;;8.850001;8.050001;;;;;;;16.36;100;95128.45;;;;
2020/06/29 02:13:56;;;;;;;8.850001;8.050001;;;;;;;16.36;100;95128.45;;;;
2020/06/29 02:14:57;;;;;;;8.850001;8.050001;;;;;;;16.36;100;95128.45;;;;
2020/06/29 02:15:57;;;;;;;8.850001;8.050001;;;;;;;16.36;100;95128.45;;;;
2020/06/29 02:16:58;;;;;;;8.850001;8.050001;;;;;;;16.36;100;95128.45;;;;
2020/06/29 02:17:58;;;;;;;8.850001;8.050001;;;;;;;16.36;100;95128.45;;;;
2020/06/29 02:18:58;;;;;;;6.8;5.749999;;;;;;;16.27;100;95120.03;;;;
2020/06/29 02:19:59;;;;;;;6.8;5.749999;;;;;;;16.27;100;95120.03;;;;
2020/06/29 02:20:59;;;;;;;6.8;5.749999;;;;;;;16.27;100;95120.03;;;;
2020/06/29 02:22:00;;;;;;;6.8;5.749999;;;;;;;16.27;100;95120.03;;;;
2020/06/29 02:23:00;;;;;;;6.8;5.749999;;;;;;;16.27;100;95120.03;;;;
2020/06/29 02:24:01;;;;;;;6.8;5.749999;;;;;;;16.27;100;95120.03;;;;
2020/06/29 02:25:01;;;;;;;6.8;5.749999;;;;;;;16.27;100;95120.03;;;;
2020/06/29 02:26:02;;;;;;;6.8;5.749999;;;;;;;16.27;100;95120.03;;;;
2020/06/29 02:27:03;;;;;;;6.8;5.749999;;;;;;;16.27;100;95120.03;;;;
2020/06/29 02:28:03;;;;;;;6.8;5.749999;;;;;;;16.27;100;95120.03;;;;
2020/06/29 02:29:03;;;;;;;9.399999;6;;;;;;;16.15;100;95119.09;;;;
2020/06/29 02:30:04;;;;;;;9.399999;6;;;;;;;16.15;100;95119.09;;;;
2020/06/29 02:31:04;;;;;;;9.399999;6;;;;;;;16.15;100;95119.09;;;;
2020/06/29 02:32:05;;;;;;;9.399999;6;;;;;;;16.15;100;95119.09;;;;
2020/06/29 02:33:05;;;;;;;9.399999;6;;;;;;;16.15;100;95119.09;;;;
2020/06/29 02:34:06;;;;;;;9.399999;6;;;;;;;16.15;100;95119.09;;;;
2020/06/29 02:35:06;;;;;;;9.399999;6;;;;;;;16.15;100;95119.09;;;;
2020/06/29 02:36:07;;;;;;;9.399999;6;;;;;;;16.15;100;95119.09;;;;
2020/06/29 02:37:07;;;;;;;9.399999;6;;;;;;;16.15;100;95119.09;;;;
2020/06/29 02:38:08;;;;;;;9.399999;6;;;;;;;16.15;100;95119.09;;;;
2020/06/29 02:39:08;;;;;;;9.399999;6;;;;;;;16.15;100;95119.09;;;;
2020/06/29 02:40:08;;;;;;;7.150001;5.900001;;;;;;;15.99;100;95113.39;;;;
2020/06/29 02:41:09;;;;;;;7.150001;5.900001;;;;;;;15.99;100;95113.39;;;;
2020/06/29 02:42:09;;;;;;;7.150001;5.900001;;;;;;;15.99;100;95113.39;;;;
2020/06/29 02:43:10;;;;;;;7.150001;5.900001;;;;;;;15.99;100;95113.39;;;;
2020/06/29 02:44:10;;;;;;;7.150001;5.900001;;;;;;;15.99;100;95113.39;;;;
2020/06/29 02:45:11;;;;;;;7.150001;5.900001;;;;;;;15.99;100;95113.39;;;;
2020/06/29 02:46:11;;;;;;;7.150001;5.900001;;;;;;;15.99;100;95113.39;;;;
2020/06/29 02:47:12;;;;;;;7.150001;5.900001;;;;;;;15.99;100;95113.39;;;;
2020/06/29 02:48:12;;;;;;;7.150001;5.900001;;;;;;;15.99;100;95113.39;;;;
2020/06/29 02:49:13;;;;;;;7.150001;5.900001;;;;;;;15.99;100;95113.39;;;;
2020/06/29 02:50:13;;;;;;;6.849999;6.1;;;;;;;15.96;100;95101.12;;;;
2020/06/29 02:51:14;;;;;;;6.849999;6.1;;;;;;;15.96;100;95101.12;;;;
2020/06/29 02:52:16;;;;;;;6.849999;6.1;;;;;;;15.96;100;95101.12;;;;
2020/06/29 02:53:18;;;;;;;6.849999;6.1;;;;;;;15.96;100;95101.12;;;;
2020/06/29 02:54:19;;;;;;;6.849999;6.1;;;;;;;15.96;100;95101.12;;;;
2020/06/29 02:55:19;;;;;;;6.849999;6.1;;;;;;;15.96;100;95101.12;;;;
2020/06/29 02:56:19;;;;;;;6.849999;6.1;;;;;;;15.96;100;95101.12;;;;
2020/06/29 02:57:20;;;;;;;6.849999;6.1;;;;;;;15.96;100;95101.12;;;;
2020/06/29 02:58:20;;;;;;;6.849999;6.1;;;;;;;15.96;100;95101.12;;;;
2020/06/29 02:59:21;;;;;;;6.849999;6.1;;;;;;;15.96;100;95101.12;;;;
2020/06/29 03:00:21;;;;;;;6.849999;6.1;;;;;;;15.96;100;95101.12;;;;
2020/06/29 03:01:22;;;;;;;7.6;6.199999;;;;;;;15.87;100;95090.1;;;;
2020/06/29 03:02:22;;;;;;;7.6;6.199999;;;;;;;15.87;100;95090.1;;;;
2020/06/29 03:03:23;;;;;;;7.6;6.199999;;;;;;;15.87;100;95090.1;;;;
2020/06/29 03:04:23;;;;;;;7.6;6.199999;;;;;;;15.87;100;95090.1;;;;
2020/06/29 03:05:24;;;;;;;7.6;6.199999;;;;;;;15.87;100;95090.1;;;;
2020/06/29 03:06:24;;;;;;;7.6;6.199999;;;;;;;15.87;100;95090.1;;;;
2020/06/29 03:07:25;;;;;;;7.6;6.199999;;;;;;;15.87;100;95090.1;;;;
2020/06/29 03:08:25;;;;;;;7.6;6.199999;;;;;;;15.87;100;95090.1;;;;
2020/06/29 03:09:26;;;;;;;7.6;6.199999;;;;;;;15.87;100;95090.1;;;;
2020/06/29 03:10:26;;;;;;;7.6;6.199999;;;;;;;15.87;100;95090.1;;;;
2020/06/29 03:11:27;;;;;;;9.399998;6.900001;;;;;;;15.89;100;95085.74;;;;
2020/06/29 03:12:27;;;;;;;9.399998;6.900001;;;;;;;15.89;100;95085.74;;;;
2020/06/29 03:13:27;;;;;;;9.399998;6.900001;;;;;;;15.89;100;95085.74;;;;
2020/06/29 03:14:28;;;;;;;9.399998;6.900001;;;;;;;15.89;100;95085.74;;;;
2020/06/29 03:15:28;;;;;;;9.399998;6.900001;;;;;;;15.89;100;95085.74;;;;
2020/06/29 03:16:29;;;;;;;9.399998;6.900001;;;;;;;15.89;100;95085.74;;;;
2020/06/29 03:17:29;;;;;;;9.399998;6.900001;;;;;;;15.89;100;95085.74;;;;
2020/06/29 03:18:30;;;;;;;9.399998;6.900001;;;;;;;15.89;100;95085.74;;;;
2020/06/29 03:19:30;;;;;;;9.399998;6.900001;;;;;;;15.89;100;95085.74;;;;
2020/06/29 03:20:31;;;;;;;9.399998;6.900001;;;;;;;15.89;100;95085.74;;;;
2020/06/29 03:21:31;;;;;;;9.399998;6.900001;;;;;;;15.89;100;95085.74;;;;
2020/06/29 03:22:32;;;;;;;7.1;5.9;;;;;;;15.88;100;95074.05;;;;
2020/06/29 03:23:32;;;;;;;7.1;5.9;;;;;;;15.88;100;95074.05;;;;
2020/06/29 03:24:32;;;;;;;7.1;5.9;;;;;;;15.88;100;95074.05;;;;
2020/06/29 03:25:33;;;;;;;7.1;5.9;;;;;;;15.88;100;95074.05;;;;
2020/06/29 03:26:33;;;;;;;7.1;5.9;;;;;;;15.88;100;95074.05;;;;
2020/06/29 03:27:34;;;;;;;7.1;5.9;;;;;;;15.88;100;95074.05;;;;
2020/06/29 03:28:34;;;;;;;7.1;5.9;;;;;;;15.88;100;95074.05;;;;
2020/06/29 03:29:35;;;;;;;7.1;5.9;;;;;;;15.88;100;95074.05;;;;
2020/06/29 03:30:36;;;;;;;7.1;5.9;;;;;;;15.88;100;95074.05;;;;
2020/06/29 03:31:36;;;;;;;7.1;5.9;;;;;;;15.88;100;95074.05;;;;
2020/06/29 03:32:37;;;;;;;8.5;6.45;;;;;;;15.92;100;95050.61;;;;
2020/06/29 03:33:37;;;;;;;8.5;6.45;;;;;;;15.92;100;95050.61;;;;
2020/06/29 03:34:38;;;;;;;8.5;6.45;;;;;;;15.92;100;95050.61;;;;
2020/06/29 03:35:38;;;;;;;8.5;6.45;;;;;;;15.92;100;95050.61;;;;
2020/06/29 03:36:38;;;;;;;8.5;6.45;;;;;;;15.92;100;95050.61;;;;
2020/06/29 03:37:39;;;;;;;8.5;6.45;;;;;;;15.92;100;95050.61;;;;
2020/06/29 03:38:39;;;;;;;8.5;6.45;;;;;;;15.92;100;95050.61;;;;
2020/06/29 03:39:40;;;;;;;8.5;6.45;;;;;;;15.92;100;95050.61;;;;
2020/06/29 03:40:40;;;;;;;8.5;6.45;;;;;;;15.92;100;95050.61;;;;
2020/06/29 03:41:41;;;;;;;8.5;6.45;;;;;;;15.92;100;95050.61;;;;
2020/06/29 03:42:42;;;;;;;8.5;6.45;;;;;;;15.92;100;95050.61;;;;
2020/06/29 03:43:42;;;;;;;10.25;6.700001;;;;;;;15.9;100;95038.37;;;;
2020/06/29 03:44:43;;;;;;;10.25;6.700001;;;;;;;15.9;100;95038.37;;;;
2020/06/29 03:45:44;;;;;;;10.25;6.700001;;;;;;;15.9;100;95038.37;;;;
2020/06/29 03:46:45;;;;;;;10.25;6.700001;;;;;;;15.9;100;95038.37;;;;
2020/06/29 03:47:45;;;;;;;10.25;6.700001;;;;;;;15.9;100;95038.37;;;;
2020/06/29 03:48:46;;;;;;;10.25;6.700001;;;;;;;15.9;100;95038.37;;;;
2020/06/29 03:49:46;;;;;;;10.25;6.700001;;;;;;;15.9;100;95038.37;;;;
2020/06/29 03:50:46;;;;;;;10.25;6.700001;;;;;;;15.9;100;95038.37;;;;
2020/06/29 03:51:47;;;;;;;10.25;6.700001;;;;;;;15.9;100;95038.37;;;;
2020/06/29 03:52:47;;;;;;;10.25;6.700001;;;;;;;15.9;100;95038.37;;;;
2020/06/29 03:53:48;;;;;;;8.450001;6.749999;;;;;;;15.93;100;95015.08;;;;
2020/06/29 03:54:48;;;;;;;8.450001;6.749999;;;;;;;15.93;100;95015.08;;;;
2020/06/29 03:55:49;;;;;;;8.450001;6.749999;;;;;;;15.93;100;95015.08;;;;
2020/06/29 03:56:49;;;;;;;8.450001;6.749999;;;;;;;15.93;100;95015.08;;;;
2020/06/29 03:57:50;;;;;;;8.450001;6.749999;;;;;;;15.93;100;95015.08;;;;
2020/06/29 03:58:50;;;;;;;8.450001;6.749999;;;;;;;15.93;100;95015.08;;;;
2020/06/29 03:59:51;;;;;;;8.450001;6.749999;;;;;;;15.93;100;95015.08;;;;
2020/06/29 04:00:51;;;;;;;8.450001;6.749999;;;;;;;15.93;100;95015.08;;;;
2020/06/29 04:01:52;;;;;;;8.450001;6.749999;;;;;;;15.93;100;95015.08;;;;
2020/06/29 04:02:52;;;;;;;8.450001;6.749999;;;;;;;15.93;100;95015.08;;;;
2020/06/29 04:03:52;;;;;;;8.450001;6.749999;;;;;;;15.93;100;95015.08;;;;
2020/06/29 04:04:53;;;;;;;8.799999;7.25;;;;;;;15.95;100;95028.83;;;;
2020/06/29 04:05:53;;;;;;;8.799999;7.25;;;;;;;15.95;100;95028.83;;;;
2020/06/29 04:06:54;;;;;;;8.799999;7.25;;;;;;;15.95;100;95028.83;;;;
2020/06/29 04:07:54;;;;;;;8.799999;7.25;;;;;;;15.95;100;95028.83;;;;
2020/06/29 04:08:55;;;;;;;8.799999;7.25;;;;;;;15.95;100;95028.83;;;;
2020/06/29 04:09:55;;;;;;;8.799999;7.25;;;;;;;15.95;100;95028.83;;;;
2020/06/29 04:10:57;;;;;;;8.799999;7.25;;;;;;;15.95;100;95028.83;;;;
2020/06/29 04:11:57;;;;;;;8.799999;7.25;;;;;;;15.95;100;95028.83;;;;
2020/06/29 04:12:58;;;;;;;8.799999;7.25;;;;;;;15.95;100;95028.83;;;;
2020/06/29 04:13:58;;;;;;;8.799999;7.25;;;;;;;15.95;100;95028.83;;;;
2020/06/29 04:14:59;;;;;;;9.95;7.799999;;;;;;;16.07;100;95026.08;;;;
2020/06/29 04:15:59;;;;;;;9.95;7.799999;;;;;;;16.07;100;95026.08;;;;
2020/06/29 04:17:00;;;;;;;9.95;7.799999;;;;;;;16.07;100;95026.08;;;;
2020/06/29 04:18:00;;;;;;;9.95;7.799999;;;;;;;16.07;100;95026.08;;;;
2020/06/29 04:19:01;;;;;;;9.95;7.799999;;;;;;;16.07;100;95026.08;;;;
2020/06/29 04:20:01;;;;;;;9.95;7.799999;;;;;;;16.07;100;95026.08;;;;
2020/06/29 04:21:02;;;;;;;9.95;7.799999;;;;;;;16.07;100;95026.08;;;;
2020/06/29 04:22:03;;;;;;;9.95;7.799999;;;;;;;16.07;100;95026.08;;;;
2020/06/29 04:23:03;;;;;;;9.95;7.799999;;;;;;;16.07;100;95026.08;;;;
2020/06/29 04:24:04;;;;;;;9.95;7.799999;;;;;;;16.07;100;95026.08;;;;
2020/06/29 04:25:05;;;;;;;9.95;7.799999;;;;;;;16.07;100;95026.08;;;;
2020/06/29 04:26:05;;;;;;;11.05;8.45;;;;;;;16.13;100;95022.27;;;;
2020/06/29 04:27:06;;;;;;;11.05;8.45;;;;;;;16.13;100;95022.27;;;;
2020/06/29 04:28:06;;;;;;;11.05;8.45;;;;;;;16.13;100;95022.27;;;;
2020/06/29 04:29:07;;;;;;;11.05;8.45;;;;;;;16.13;100;95022.27;;;;
2020/06/29 04:30:07;;;;;;;11.05;8.45;;;;;;;16.13;100;95022.27;;;;
2020/06/29 04:31:07;;;;;;;11.05;8.45;;;;;;;16.13;100;95022.27;;;;
2020/06/29 04:32:08;;;;;;;11.05;8.45;;;;;;;16.13;100;95022.27;;;;
2020/06/29 04:33:08;;;;;;;11.05;8.45;;;;;;;16.13;100;95022.27;;;;
2020/06/29 04:34:09;;;;;;;11.05;8.45;;;;;;;16.13;100;95022.27;;;;
2020/06/29 04:35:09;;;;;;;11.05;8.45;;;;;;;16.13;100;95022.27;;;;
2020/06/29 04:36:10;;;;;;;10.75;8.500001;;;;;;;16.2;100;95045;;;;
2020/06/29 04:37:10;;;;;;;10.75;8.500001;;;;;;;16.2;100;95045;;;;
2020/06/29 04:38:11;;;;;;;10.75;8.500001;;;;;;;16.2;100;95045;;;;
2020/06/29 04:39:11;;;;;;;10.75;8.500001;;;;;;;16.2;100;95045;;;;
2020/06/29 04:40:12;;;;;;;10.75;8.500001;;;;;;;16.2;100;95045;;;;
2020/06/29 04:41:12;;;;;;;10.75;8.500001;;;;;;;16.2;100;95045;;;;
2020/06/29 04:42:12;;;;;;;10.75;8.500001;;;;;;;16.2;100;95045;;;;
2020/06/29 04:43:13;;;;;;;10.75;8.500001;;;;;;;16.2;100;95045;;;;
2020/06/29 04:44:13;;;;;;;10.75;8.500001;;;;;;;16.2;100;95045;;;;
2020/06/29 04:45:14;;;;;;;10.75;8.500001;;;;;;;16.2;100;95045;;;;
2020/06/29 04:46:14;;;;;;;10.75;8.500001;;;;;;;16.2;100;95045;;;;
2020/06/29 04:47:15;;;;;;;11.9;8.3;;;;;;;16.18;100;95045.81;;;;
2020/06/29 04:48:15;;;;;;;11.9;8.3;;;;;;;16.18;100;95045.81;;;;
2020/06/29 04:49:16;;;;;;;11.9;8.3;;;;;;;16.18;100;95045.81;;;;
2020/06/29 04:50:16;;;;;;;11.9;8.3;;;;;;;16.18;100;95045.81;;;;
2020/06/29 04:51:17;;;;;;;11.9;8.3;;;;;;;16.18;100;95045.81;;;;
2020/06/29 04:52:17;;;;;;;11.9;8.3;;;;;;;16.18;100;95045.81;;;;
2020/06/29 04:53:17;;;;;;;11.9;8.3;;;;;;;16.18;100;95045.81;;;;
2020/06/29 04:54:18;;;;;;;11.9;8.3;;;;;;;16.18;100;95045.81;;;;
2020/06/29 04:55:18;;;;;;;11.9;8.3;;;;;;;16.18;100;95045.81;;;;
2020/06/29 04:56:19;;;;;;;11.9;8.3;;;;;;;16.18;100;95045.81;;;;
2020/06/29 04:57:19;;;;;;;10.5;8.35;;;;;;;16.2;100;95052.34;;;;
2020/06/29 04:58:20;;;;;;;10.5;8.35;;;;;;;16.2;100;95052.34;;;;
2020/06/29 04:59:20;;;;;;;10.5;8.35;;;;;;;16.2;100;95052.34;;;;
2020/06/29 05:00:21;;;;;;;10.5;8.35;;;;;;;16.2;100;95052.34;;;;
2020/06/29 05:01:21;;;;;;;10.5;8.35;;;;;;;16.2;100;95052.34;;;;
2020/06/29 05:02:21;;;;;;;10.5;8.35;;;;;;;16.2;100;95052.34;;;;
2020/06/29 05:03:22;;;;;;;10.5;8.35;;;;;;;16.2;100;95052.34;;;;
2020/06/29 05:04:22;;;;;;;10.5;8.35;;;;;;;16.2;100;95052.34;;;;
2020/06/29 05:05:23;;;;;;;10.5;8.35;;;;;;;16.2;100;95052.34;;;;
2020/06/29 05:06:23;;;;;;;10.5;8.35;;;;;;;16.2;100;95052.34;;;;
2020/06/29 05:07:24;;;;;;;10.5;8.35;;;;;;;16.2;100;95052.34;;;;
2020/06/29 05:08:24;;;;;;;10.25;8.649999;;;;;;;16.13;100;95048.14;;;;
2020/06/29 05:09:25;;;;;;;10.25;8.649999;;;;;;;16.13;100;95048.14;;;;
2020/06/29 05:10:25;;;;;;;10.25;8.649999;;;;;;;16.13;100;95048.14;;;;
2020/06/29 05:11:26;;;;;;;10.25;8.649999;;;;;;;16.13;100;95048.14;;;;
2020/06/29 05:12:26;;;;;;;10.25;8.649999;;;;;;;16.13;100;95048.14;;;;
2020/06/29 05:13:27;;;;;;;10.25;8.649999;;;;;;;16.13;100;95048.14;;;;
2020/06/29 05:14:27;;;;;;;10.25;8.649999;;;;;;;16.13;100;95048.14;;;;
2020/06/29 05:15:28;;;;;;;10.25;8.649999;;;;;;;16.13;100;95048.14;;;;
2020/06/29 05:16:28;;;;;;;10.25;8.649999;;;;;;;16.13;100;95048.14;;;;
2020/06/29 05:17:29;;;;;;;10.25;8.649999;;;;;;;16.13;100;95048.14;;;;
2020/06/29 05:18:29;;;;;;;10.25;8.649999;;;;;;;16.13;100;95048.14;;;;
2020/06/29 05:19:29;;;;;;;10.95;9.849999;;;;;;;16.12;100;95040.25;;;;
2020/06/29 05:20:30;;;;;;;10.95;9.849999;;;;;;;16.12;100;95040.25;;;;
2020/06/29 05:21:30;;;;;;;10.95;9.849999;;;;;;;16.12;100;95040.25;;;;
2020/06/29 05:22:31;;;;;;;10.95;9.849999;;;;;;;16.12;100;95040.25;;;;
2020/06/29 05:23:31;;;;;;;10.95;9.849999;;;;;;;16.12;100;95040.25;;;;
2020/06/29 05:24:32;;;;;;;10.95;9.849999;;;;;;;16.12;100;95040.25;;;;
2020/06/29 05:25:32;;;;;;;10.95;9.849999;;;;;;;16.12;100;95040.25;;;;
2020/06/29 05:26:33;;;;;;;10.95;9.849999;;;;;;;16.12;100;95040.25;;;;
2020/06/29 05:27:33;;;;;;;10.95;9.849999;;;;;;;16.12;100;95040.25;;;;
2020/06/29 05:28:34;;;;;;;10.95;9.849999;;;;;;;16.12;100;95040.25;;;;
2020/06/29 05:29:34;;;;;;;11.8;10.3;;;;;;;16.05;100;95035.49;;;;
2020/06/29 05:30:35;;;;;;;11.8;10.3;;;;;;;16.05;100;95035.49;;;;
2020/06/29 05:31:35;;;;;;;11.8;10.3;;;;;;;16.05;100;95035.49;;;;
2020/06/29 05:32:35;;;;;;;11.8;10.3;;;;;;;16.05;100;95035.49;;;;
2020/06/29 05:33:36;;;;;;;11.8;10.3;;;;;;;16.05;100;95035.49;;;;
2020/06/29 05:34:36;;;;;;;11.8;10.3;;;;;;;16.05;100;95035.49;;;;
2020/06/29 05:35:37;;;;;;;11.8;10.3;;;;;;;16.05;100;95035.49;;;;
2020/06/29 05:36:37;;;;;;;11.8;10.3;;;;;;;16.05;100;95035.49;;;;
2020/06/29 05:37:38;;;;;;;11.8;10.3;;;;;;;16.05;100;95035.49;;;;
2020/06/29 05:38:38;;;;;;;11.8;10.3;;;;;;;16.05;100;95035.49;;;;
2020/06/29 05:39:39;;;;;;;11.8;10.3;;;;;;;16.05;100;95035.49;;;;
2020/06/29 05:40:39;;;;;;;14;11.8;;;;;;;16.09;100;95032.48;;;;
2020/06/29 05:41:40;;;;;;;14;11.8;;;;;;;16.09;100;95032.48;;;;
2020/06/29 05:42:40;;;;;;;14;11.8;;;;;;;16.09;100;95032.48;;;;
2020/06/29 05:43:41;;;;;;;14;11.8;;;;;;;16.09;100;95032.48;;;;
2020/06/29 05:44:41;;;;;;;14;11.8;;;;;;;16.09;100;95032.48;;;;
2020/06/29 05:45:42;;;;;;;14;11.8;;;;;;;16.09;100;95032.48;;;;
2020/06/29 05:46:42;;;;;;;14;11.8;;;;;;;16.09;100;95032.48;;;;
2020/06/29 05:47:42;;;;;;;14;11.8;;;;;;;16.09;100;95032.48;;;;
2020/06/29 05:48:43;;;;;;;14;11.8;;;;;;;16.09;100;95032.48;;;;
2020/06/29 05:49:43;;;;;;;14;11.8;;;;;;;16.09;100;95032.48;;;;
2020/06/29 05:50:44;;;;;;;16.05;12.65;;;;;;;16.09;100;95028.4;;;;
2020/06/29 05:51:44;;;;;;;16.05;12.65;;;;;;;16.09;100;95028.4;;;;
2020/06/29 05:52:45;;;;;;;16.05;12.65;;;;;;;16.09;100;95028.4;;;;